createdAt,value
2024-02-14T00:01:00.524Z,6.80
2024-02-14T00:03:27.982Z,6.90
2024-02-14T00:05:57.059Z,6.90
2024-02-14T00:08:24.410Z,6.90
2024-02-14T00:10:51.315Z,6.80
2024-02-14T00:13:19.829Z,6.80
2024-02-14T00:15:49.403Z,6.90
2024-02-14T00:18:20.794Z,6.80
2024-02-14T00:20:47.886Z,6.80
2024-02-14T00:23:14.946Z,6.80
2024-02-14T00:25:41.854Z,6.80
2024-02-14T00:28:08.718Z,6.80
2024-02-14T00:30:35.667Z,6.80
2024-02-14T00:33:02.770Z,6.80
2024-02-14T00:35:29.887Z,6.90
2024-02-14T00:37:56.806Z,6.90
2024-02-14T00:40:23.841Z,6.90
2024-02-14T00:42:50.720Z,6.80
2024-02-14T00:45:17.597Z,6.80
2024-02-14T00:47:44.556Z,6.90
2024-02-14T00:50:11.856Z,6.80
2024-02-14T00:52:38.712Z,6.90
2024-02-14T00:55:05.837Z,6.90
2024-02-14T00:57:33.650Z,6.80
2024-02-14T01:00:01.265Z,6.90
2024-02-14T01:02:28.503Z,7.00
2024-02-14T01:04:55.457Z,6.90
2024-02-14T01:07:22.379Z,7.00
2024-02-14T01:09:49.363Z,7.10
2024-02-14T01:12:16.358Z,7.00
2024-02-14T01:14:43.375Z,6.90
2024-02-14T01:17:10.442Z,6.90
2024-02-14T01:19:37.417Z,7.00
2024-02-14T01:22:04.519Z,7.10
2024-02-14T01:24:31.950Z,7.10
2024-02-14T01:26:59.013Z,7.00
2024-02-14T01:29:25.981Z,7.10
2024-02-14T01:31:52.898Z,7.10
2024-02-14T01:34:20.188Z,7.10
2024-02-14T01:36:48.998Z,7.20
2024-02-14T01:39:15.873Z,7.20
2024-02-14T01:41:50.137Z,7.20
2024-02-14T01:44:17.838Z,7.20
2024-02-14T01:46:45.777Z,7.20
2024-02-14T01:49:13.613Z,7.20
2024-02-14T01:51:43.349Z,7.20
2024-02-14T01:54:11.381Z,7.30
2024-02-14T01:56:39.045Z,7.30
2024-02-14T01:59:06.900Z,7.30
2024-02-14T02:01:34.897Z,7.40
2024-02-14T02:04:02.937Z,7.30
2024-02-14T02:06:31.792Z,7.40
2024-02-14T02:08:59.763Z,7.40
2024-02-14T02:11:27.434Z,7.50
2024-02-14T02:13:54.345Z,7.40
2024-02-14T02:16:21.528Z,7.40
2024-02-14T02:18:50.030Z,7.50
2024-02-14T02:21:20.700Z,7.50
2024-02-14T02:23:49.740Z,7.60
2024-02-14T02:26:16.655Z,7.50
2024-02-14T02:28:43.832Z,7.50
2024-02-14T02:31:11.386Z,7.50
2024-02-14T02:33:38.581Z,7.60
2024-02-14T02:36:07.585Z,7.60
2024-02-14T02:38:35.072Z,7.60
2024-02-14T02:41:02.172Z,7.60
2024-02-14T02:43:29.550Z,7.60
2024-02-14T02:45:58.634Z,7.60
2024-02-14T02:48:25.704Z,7.60
2024-02-14T02:50:53.173Z,7.60
2024-02-14T02:53:20.884Z,7.70
2024-02-14T02:55:47.977Z,7.70
2024-02-14T02:58:16.073Z,7.70
2024-02-14T03:00:42.956Z,7.70
2024-02-14T03:03:10.465Z,7.70
2024-02-14T03:05:37.630Z,7.80
2024-02-14T03:08:04.976Z,7.80
2024-02-14T03:10:32.061Z,7.80
2024-02-14T03:12:58.952Z,7.80
2024-02-14T03:15:27.382Z,7.80
2024-02-14T03:17:54.425Z,7.90
2024-02-14T03:20:21.661Z,7.90
2024-02-14T03:22:49.471Z,7.90
2024-02-14T03:25:21.429Z,7.90
2024-02-14T03:27:52.282Z,8.00
2024-02-14T03:30:19.969Z,8.00
2024-02-14T03:32:47.877Z,8.10
2024-02-14T03:35:15.082Z,8.10
2024-02-14T03:37:49.066Z,8.20
2024-02-14T03:40:16.326Z,8.20
2024-02-14T03:42:43.287Z,8.10
2024-02-14T03:45:10.930Z,8.10
2024-02-14T03:47:41.493Z,8.20
2024-02-14T03:50:12.171Z,8.20
2024-02-14T03:52:39.281Z,8.20
2024-02-14T03:55:06.940Z,8.20
2024-02-14T03:57:36.519Z,8.30
2024-02-14T04:00:04.217Z,8.20
2024-02-14T04:02:33.206Z,8.20
2024-02-14T04:05:00.639Z,8.20
2024-02-14T04:07:27.761Z,8.40
2024-02-14T04:09:54.999Z,8.30
2024-02-14T04:12:21.926Z,8.30
2024-02-14T04:14:49.653Z,8.30
2024-02-14T04:17:16.770Z,8.50
2024-02-14T04:19:43.713Z,8.40
2024-02-14T04:22:10.736Z,8.40
2024-02-14T04:24:37.775Z,8.40
2024-02-14T04:27:05.886Z,8.50
2024-02-14T04:29:34.922Z,8.50
2024-02-14T04:32:03.345Z,8.50
2024-02-14T04:34:31.553Z,8.50
2024-02-14T04:36:58.900Z,8.60
2024-02-14T04:39:25.962Z,8.60
2024-02-14T04:41:58.001Z,8.50
2024-02-14T04:44:30.110Z,8.50
2024-02-14T04:47:00.478Z,8.70
2024-02-14T04:49:30.086Z,8.60
2024-02-14T04:51:57.209Z,8.70
2024-02-14T04:54:24.450Z,8.70
2024-02-14T04:56:55.190Z,8.80
2024-02-14T04:59:24.041Z,8.80
2024-02-14T05:01:52.691Z,8.80
2024-02-14T05:04:19.595Z,8.70
2024-02-14T05:06:46.722Z,8.70
2024-02-14T05:09:16.006Z,8.80
2024-02-14T05:11:43.333Z,8.80
2024-02-14T05:14:10.315Z,8.90
2024-02-14T05:16:37.155Z,8.90
2024-02-14T05:19:04.403Z,8.90
2024-02-14T05:21:31.452Z,9.00
2024-02-14T05:23:58.768Z,9.00
2024-02-14T05:26:25.638Z,9.10
2024-02-14T05:28:52.525Z,8.90
2024-02-14T05:31:19.389Z,9.00
2024-02-14T05:33:46.377Z,9.00
2024-02-14T05:36:13.314Z,9.00
2024-02-14T05:38:40.830Z,9.10
2024-02-14T05:41:08.799Z,9.00
2024-02-14T05:43:35.849Z,9.00
2024-02-14T05:46:02.743Z,9.10
2024-02-14T05:48:29.835Z,9.10
2024-02-14T05:50:56.924Z,9.10
2024-02-14T05:53:23.981Z,9.10
2024-02-14T05:55:50.811Z,9.10
2024-02-14T05:58:17.679Z,9.10
2024-02-14T06:00:47.901Z,9.00
2024-02-14T06:03:14.862Z,9.10
2024-02-14T06:05:41.913Z,9.20
2024-02-14T06:08:08.776Z,9.20
2024-02-14T06:10:36.330Z,9.30
2024-02-14T06:13:03.283Z,9.20
2024-02-14T06:15:30.246Z,9.20
2024-02-14T06:17:57.367Z,9.20
2024-02-14T06:20:24.831Z,9.30
2024-02-14T06:22:57.598Z,9.20
2024-02-14T06:25:31.696Z,9.20
2024-02-14T06:27:58.599Z,9.20
2024-02-14T06:30:28.565Z,9.30
2024-02-14T06:33:02.141Z,9.30
2024-02-14T06:35:31.314Z,9.30
2024-02-14T06:38:03.984Z,9.40
2024-02-14T06:40:32.469Z,9.40
2024-02-14T06:43:01.115Z,9.40
2024-02-14T06:45:31.213Z,9.40
2024-02-14T06:47:58.287Z,9.30
2024-02-14T06:50:28.910Z,9.40
2024-02-14T06:53:00.638Z,9.40
2024-02-14T06:55:28.346Z,9.40
2024-02-14T06:57:55.504Z,9.40
2024-02-14T07:00:22.623Z,9.40
2024-02-14T07:02:49.691Z,9.50
2024-02-14T07:05:16.774Z,9.50
2024-02-14T07:07:43.791Z,9.60
2024-02-14T07:10:11.097Z,9.70
2024-02-14T07:12:37.991Z,9.70
2024-02-14T07:15:06.560Z,9.60
2024-02-14T07:17:34.185Z,9.60
2024-02-14T07:20:02.143Z,9.60
2024-02-14T07:22:31.562Z,9.60
2024-02-14T07:24:58.586Z,9.60
2024-02-14T07:27:25.677Z,9.60
2024-02-14T07:29:52.807Z,9.60
2024-02-14T07:32:19.986Z,9.70
2024-02-14T07:34:47.513Z,9.70
2024-02-14T07:37:16.724Z,9.70
2024-02-14T07:39:43.661Z,9.70
2024-02-14T07:42:10.709Z,9.80
2024-02-14T07:44:37.840Z,9.80
2024-02-14T07:47:06.957Z,9.70
2024-02-14T07:49:34.815Z,9.70
2024-02-14T07:52:01.928Z,9.80
2024-02-14T07:54:28.880Z,9.80
2024-02-14T07:56:55.824Z,9.70
2024-02-14T07:59:22.713Z,9.80
2024-02-14T08:01:49.595Z,9.80
2024-02-14T08:04:17.316Z,9.90
2024-02-14T08:06:47.792Z,9.90
2024-02-14T08:09:14.781Z,9.80
2024-02-14T08:11:42.141Z,9.90
2024-02-14T08:14:09.340Z,9.90
2024-02-14T08:16:36.603Z,9.90
2024-02-14T08:19:04.802Z,9.90
2024-02-14T08:21:32.923Z,9.90
2024-02-14T08:24:01.386Z,9.90
2024-02-14T08:26:29.660Z,9.90
2024-02-14T08:28:56.967Z,9.90
2024-02-14T08:31:24.090Z,9.90
2024-02-14T08:33:51.496Z,9.90
2024-02-14T08:36:20.243Z,9.90
2024-02-14T08:38:47.692Z,10.00
2024-02-14T08:41:15.482Z,10.00
2024-02-14T08:43:45.960Z,10.00
2024-02-14T08:46:14.720Z,10.00
2024-02-14T08:48:48.097Z,10.00
2024-02-14T08:51:16.297Z,10.10
2024-02-14T08:53:45.053Z,10.10
2024-02-14T08:56:12.294Z,10.10
2024-02-14T08:58:39.549Z,10.10
2024-02-14T09:01:13.694Z,10.10
2024-02-14T09:03:50.708Z,10.20
2024-02-14T09:06:19.699Z,10.10
2024-02-14T09:08:46.969Z,10.10
2024-02-14T09:11:14.216Z,10.20
2024-02-14T09:13:43.928Z,10.20
2024-02-14T09:16:15.171Z,10.30
2024-02-14T09:18:42.575Z,10.30
2024-02-14T09:21:09.836Z,10.30
2024-02-14T09:23:40.370Z,10.30
2024-02-14T09:26:07.801Z,10.30
2024-02-14T09:28:36.200Z,10.30
2024-02-14T09:31:05.481Z,10.40
2024-02-14T09:33:32.628Z,10.30
2024-02-14T09:35:59.697Z,10.30
2024-02-14T09:38:26.574Z,10.30
2024-02-14T09:40:57.885Z,10.20
2024-02-14T09:43:42.258Z,10.20
2024-02-14T09:46:09.697Z,10.20
2024-02-14T09:48:39.298Z,10.20
2024-02-14T09:51:07.552Z,10.30
2024-02-14T09:53:35.158Z,10.20
2024-02-14T09:56:03.978Z,10.20
2024-02-14T09:58:32.509Z,10.30
2024-02-14T10:01:02.597Z,10.20
2024-02-14T10:03:29.537Z,10.20
2024-02-14T10:05:56.588Z,10.40
2024-02-14T10:08:23.928Z,10.30
2024-02-14T10:10:52.691Z,10.30
2024-02-14T10:13:20.720Z,10.30
2024-02-14T10:15:48.181Z,10.30
2024-02-14T10:18:16.799Z,10.30
2024-02-14T10:20:57.459Z,10.30
2024-02-14T10:23:24.663Z,10.40
2024-02-14T10:25:56.632Z,10.40
2024-02-14T10:28:30.078Z,10.40
2024-02-14T10:31:03.413Z,10.40
2024-02-14T10:33:30.956Z,10.50
2024-02-14T10:36:02.419Z,10.50
2024-02-14T10:38:35.975Z,10.50
2024-02-14T10:41:03.629Z,10.50
2024-02-14T10:43:30.712Z,10.60
2024-02-14T10:46:00.274Z,10.60
2024-02-14T10:48:34.502Z,10.60
2024-02-14T10:51:06.524Z,10.60
2024-02-14T10:53:35.685Z,10.70
2024-02-14T10:56:03.872Z,10.60
2024-02-14T10:58:34.254Z,10.70
2024-02-14T11:01:02.057Z,10.70
2024-02-14T11:03:31.629Z,10.70
2024-02-14T11:06:05.600Z,10.70
2024-02-14T11:08:36.380Z,10.70
2024-02-14T11:11:03.603Z,10.70
2024-02-14T11:13:33.733Z,10.70
2024-02-14T11:16:06.045Z,10.80
2024-02-14T11:18:36.128Z,10.70
2024-02-14T11:21:17.256Z,10.80
2024-02-14T11:23:54.252Z,10.80
2024-02-14T11:26:21.404Z,10.80
2024-02-14T11:28:49.903Z,10.90
2024-02-14T11:31:19.890Z,10.80
2024-02-14T11:33:47.855Z,10.80
2024-02-14T11:36:17.763Z,10.80
2024-02-14T11:38:45.413Z,10.90
2024-02-14T11:41:12.544Z,10.90
2024-02-14T11:43:40.808Z,10.90
2024-02-14T11:46:07.981Z,11.00
2024-02-14T11:48:35.714Z,11.00
2024-02-14T11:51:03.492Z,11.00
2024-02-14T11:53:32.786Z,11.00
2024-02-14T11:55:59.790Z,11.00
2024-02-14T11:58:26.774Z,11.00
2024-02-14T12:00:54.951Z,11.00
2024-02-14T12:03:24.295Z,11.10
2024-02-14T12:05:53.842Z,11.10
2024-02-14T12:08:22.802Z,11.10
2024-02-14T12:10:52.950Z,11.00
2024-02-14T12:13:22.051Z,11.00
2024-02-14T12:15:51.806Z,11.00
2024-02-14T12:18:21.123Z,11.10
2024-02-14T12:20:53.935Z,11.10
2024-02-14T12:23:23.414Z,11.10
2024-02-14T12:25:50.950Z,11.20
2024-02-14T12:28:18.843Z,11.20
2024-02-14T12:30:53.108Z,11.20
2024-02-14T12:33:20.253Z,11.30
2024-02-14T12:35:48.774Z,11.30
2024-02-14T12:38:20.729Z,11.30
2024-02-14T12:40:47.806Z,11.30
2024-02-14T12:43:15.812Z,11.30
2024-02-14T12:45:43.651Z,11.30
2024-02-14T12:48:11.727Z,11.30
2024-02-14T12:50:39.677Z,11.30
2024-02-14T12:53:07.886Z,11.30
2024-02-14T12:55:35.193Z,11.30
2024-02-14T12:58:02.550Z,11.30
2024-02-14T13:00:30.663Z,11.30
2024-02-14T13:02:57.807Z,11.30
2024-02-14T13:05:25.234Z,11.30
2024-02-14T13:07:52.231Z,11.40
2024-02-14T13:10:19.232Z,11.40
2024-02-14T13:12:46.768Z,11.40
2024-02-14T13:15:13.803Z,11.30
2024-02-14T13:17:40.889Z,11.30
2024-02-14T13:20:09.394Z,11.30
2024-02-14T13:22:37.853Z,11.40
2024-02-14T13:25:06.210Z,11.40
2024-02-14T13:27:34.689Z,11.40
2024-02-14T13:30:02.306Z,11.30
2024-02-14T13:32:29.348Z,11.30
2024-02-14T13:34:56.373Z,11.40
2024-02-14T13:37:24.521Z,11.40
2024-02-14T13:39:52.389Z,11.30
2024-02-14T13:42:19.326Z,11.30
2024-02-14T13:44:46.345Z,11.30
2024-02-14T13:47:13.449Z,11.30
2024-02-14T13:49:40.553Z,11.20
2024-02-14T13:52:07.725Z,11.20
2024-02-14T13:54:34.656Z,11.20
2024-02-14T13:57:01.562Z,11.20
2024-02-14T13:59:28.441Z,11.20
2024-02-14T14:01:56.213Z,11.30
2024-02-14T14:04:23.256Z,11.30
2024-02-14T14:06:50.406Z,11.30
2024-02-14T14:09:17.762Z,11.40
2024-02-14T14:11:44.742Z,11.30
2024-02-14T14:14:17.117Z,11.30
2024-02-14T14:16:44.745Z,11.30
2024-02-14T14:19:12.598Z,11.30
2024-02-14T14:21:40.146Z,11.40
2024-02-14T14:24:07.209Z,11.40
2024-02-14T14:26:34.149Z,11.40
2024-02-14T14:29:01.010Z,11.40
2024-02-14T14:31:30.499Z,11.30
2024-02-14T14:33:58.640Z,11.30
2024-02-14T14:36:26.942Z,11.40
2024-02-14T14:38:55.840Z,11.40
2024-02-14T14:41:22.892Z,11.30
2024-02-14T14:43:50.582Z,11.40
2024-02-14T14:46:19.910Z,11.30
2024-02-14T14:48:48.177Z,11.30
2024-02-14T14:51:18.076Z,11.30
2024-02-14T14:53:45.102Z,11.30
2024-02-14T14:56:12.056Z,11.30
2024-02-14T14:58:40.339Z,11.30
2024-02-14T15:01:07.386Z,11.30
2024-02-14T15:03:34.430Z,11.20
2024-02-14T15:06:01.910Z,11.20
2024-02-14T15:08:31.192Z,11.20
2024-02-14T15:10:59.138Z,11.30
2024-02-14T15:13:26.420Z,11.20
2024-02-14T15:15:53.933Z,11.20
2024-02-14T15:18:21.241Z,11.20
2024-02-14T15:20:48.448Z,11.30
2024-02-14T15:23:18.356Z,11.30
2024-02-14T15:25:45.280Z,11.30
2024-02-14T15:28:18.954Z,11.20
2024-02-14T15:31:04.343Z,11.30
2024-02-14T15:33:31.624Z,11.30
2024-02-14T15:36:01.092Z,11.30
2024-02-14T15:38:28.214Z,11.30
2024-02-14T15:40:58.845Z,11.30
2024-02-14T15:43:26.627Z,11.20
2024-02-14T15:45:54.128Z,11.20
2024-02-14T15:48:21.443Z,11.30
2024-02-14T15:50:48.994Z,11.30
2024-02-14T15:53:16.634Z,11.30
2024-02-14T15:55:43.987Z,11.30
2024-02-14T15:58:11.311Z,11.40
2024-02-14T16:00:38.219Z,11.30
2024-02-14T16:03:06.301Z,11.30
2024-02-14T16:05:33.492Z,11.20
2024-02-14T16:08:00.793Z,11.30
2024-02-14T16:10:27.711Z,11.30
2024-02-14T16:12:55.365Z,11.30
2024-02-14T16:15:22.362Z,11.30
2024-02-14T16:17:49.614Z,11.30
2024-02-14T16:20:18.855Z,11.20
2024-02-14T16:22:48.311Z,11.30
2024-02-14T16:25:15.766Z,11.20
2024-02-14T16:27:42.711Z,11.30
2024-02-14T16:30:09.980Z,11.30
2024-02-14T16:32:37.777Z,11.30
2024-02-14T16:35:06.004Z,11.20
2024-02-14T16:37:33.230Z,11.30
2024-02-14T16:40:00.249Z,11.30
2024-02-14T16:42:27.360Z,11.30
2024-02-14T16:44:54.767Z,11.20
2024-02-14T16:47:21.742Z,11.20
2024-02-14T16:49:49.516Z,11.30
2024-02-14T16:52:17.047Z,11.30
2024-02-14T16:54:44.705Z,11.30
2024-02-14T16:57:16.010Z,11.30
2024-02-14T16:59:47.386Z,11.30
2024-02-14T17:02:14.729Z,11.30
2024-02-14T17:04:42.401Z,11.30
2024-02-14T17:07:13.233Z,11.30
2024-02-14T17:09:40.800Z,11.30
2024-02-14T17:12:09.820Z,11.30
2024-02-14T17:14:40.840Z,11.30
2024-02-14T17:17:09.680Z,11.30
2024-02-14T17:19:36.914Z,11.20
2024-02-14T17:22:13.652Z,11.20
2024-02-14T17:24:46.714Z,11.20
2024-02-14T17:27:14.943Z,11.20
2024-02-14T17:29:45.172Z,11.20
2024-02-14T17:32:20.618Z,11.30
2024-02-14T17:34:55.771Z,11.30
2024-02-14T17:37:22.677Z,11.30
2024-02-14T17:39:50.110Z,11.30
2024-02-14T17:42:17.350Z,11.30
2024-02-14T17:44:44.447Z,11.30
2024-02-14T17:47:11.477Z,11.20
2024-02-14T17:49:38.504Z,11.30
2024-02-14T17:52:05.654Z,11.30
2024-02-14T17:54:32.595Z,11.30
2024-02-14T17:56:59.932Z,11.20
2024-02-14T17:59:27.669Z,11.30
2024-02-14T18:01:54.524Z,11.40
2024-02-14T18:04:21.394Z,11.40
2024-02-14T18:06:48.433Z,11.30
2024-02-14T18:09:15.684Z,11.20
2024-02-14T18:11:42.767Z,11.30
2024-02-14T18:14:09.743Z,11.40
2024-02-14T18:16:36.646Z,11.40
2024-02-14T18:19:03.766Z,11.30
2024-02-14T18:21:30.888Z,11.30
2024-02-14T18:23:57.886Z,11.30
2024-02-14T18:26:24.958Z,11.30
2024-02-14T18:28:51.902Z,11.40
2024-02-14T18:31:18.979Z,11.30
2024-02-14T18:33:46.009Z,11.30
2024-02-14T18:36:14.182Z,11.30
2024-02-14T18:38:41.211Z,11.30
2024-02-14T18:41:08.333Z,11.30
2024-02-14T18:43:35.282Z,11.30
2024-02-14T18:46:02.260Z,11.30
2024-02-14T18:48:29.292Z,11.40
2024-02-14T18:50:56.255Z,11.40
2024-02-14T18:53:23.150Z,11.40
2024-02-14T18:55:50.261Z,11.40
2024-02-14T18:58:17.483Z,11.40
2024-02-14T19:00:44.501Z,11.40
2024-02-14T19:03:16.132Z,11.40
2024-02-14T19:05:43.185Z,11.40
2024-02-14T19:08:10.962Z,11.40
2024-02-14T19:10:37.968Z,11.40
2024-02-14T19:13:08.331Z,11.50
2024-02-14T19:15:35.310Z,11.40
2024-02-14T19:18:02.408Z,11.50
2024-02-14T19:20:31.662Z,11.50
2024-02-14T19:22:58.624Z,11.50
2024-02-14T19:25:25.630Z,11.50
2024-02-14T19:27:52.496Z,11.50
2024-02-14T19:30:19.546Z,11.50
2024-02-14T19:32:46.675Z,11.50
2024-02-14T19:35:13.922Z,11.60
2024-02-14T19:37:43.948Z,11.60
2024-02-14T19:40:12.038Z,11.60
2024-02-14T19:42:39.086Z,11.50
2024-02-14T19:45:07.261Z,11.50
2024-02-14T19:47:34.460Z,11.60
2024-02-14T19:50:08.780Z,11.50
2024-02-14T19:52:36.066Z,11.50
2024-02-14T19:55:05.948Z,11.50
2024-02-14T19:57:35.042Z,11.60
2024-02-14T20:00:09.934Z,11.50
2024-02-14T20:02:37.963Z,11.50
2024-02-14T20:05:08.755Z,11.40
2024-02-14T20:07:36.395Z,11.50
2024-02-14T20:10:07.061Z,11.50
2024-02-14T20:12:35.566Z,11.50
2024-02-14T20:15:05.577Z,11.50
2024-02-14T20:17:33.283Z,11.50
2024-02-14T20:20:00.311Z,11.40
2024-02-14T20:22:29.654Z,11.40
2024-02-14T20:24:56.710Z,11.40
2024-02-14T20:27:25.497Z,11.50
2024-02-14T20:29:52.837Z,11.40
2024-02-14T20:32:19.791Z,11.40
2024-02-14T20:34:46.819Z,11.40
2024-02-14T20:37:13.725Z,11.40
2024-02-14T20:39:40.648Z,11.40
2024-02-14T20:42:07.811Z,11.50
2024-02-14T20:44:35.060Z,11.50
2024-02-14T20:47:02.063Z,11.40
2024-02-14T20:49:29.323Z,11.50
2024-02-14T20:51:56.490Z,11.40
2024-02-14T20:54:23.379Z,11.40
2024-02-14T20:56:50.440Z,11.50
2024-02-14T20:59:17.386Z,11.40
2024-02-14T21:01:44.463Z,11.40
2024-02-14T21:04:11.507Z,11.50
2024-02-14T21:06:38.610Z,11.40
2024-02-14T21:09:10.499Z,11.40
2024-02-14T21:11:37.527Z,11.40
2024-02-14T21:14:04.413Z,11.40
2024-02-14T21:16:31.298Z,11.40
2024-02-14T21:18:58.336Z,11.40
2024-02-14T21:21:25.300Z,11.50
2024-02-14T21:23:52.403Z,11.50
2024-02-14T21:26:19.384Z,11.40
2024-02-14T21:28:46.375Z,11.50
2024-02-14T21:31:19.203Z,11.50
2024-02-14T21:33:46.219Z,11.50
2024-02-14T21:36:13.341Z,11.50
2024-02-14T21:38:40.298Z,11.60
2024-02-14T21:41:07.261Z,11.50
2024-02-14T21:43:34.152Z,11.50
2024-02-14T21:46:01.076Z,11.50
2024-02-14T21:48:28.143Z,11.40
2024-02-14T21:50:55.393Z,11.40
2024-02-14T21:53:22.285Z,11.50
2024-02-14T21:55:49.248Z,11.50
2024-02-14T21:58:16.838Z,11.50
2024-02-14T22:00:43.751Z,11.50
2024-02-14T22:03:10.643Z,11.50
2024-02-14T22:05:38.694Z,11.50
2024-02-14T22:08:06.268Z,11.50
2024-02-14T22:10:33.341Z,11.50
2024-02-14T22:13:00.841Z,11.50
2024-02-14T22:15:27.717Z,11.40
2024-02-14T22:17:55.383Z,11.50
2024-02-14T22:20:22.617Z,11.50
2024-02-14T22:22:49.485Z,11.50
2024-02-14T22:25:16.723Z,11.50
2024-02-14T22:27:45.077Z,11.50
2024-02-14T22:30:13.439Z,11.50
2024-02-14T22:32:40.639Z,11.50
2024-02-14T22:35:08.135Z,11.40
2024-02-14T22:37:35.207Z,11.50
2024-02-14T22:40:02.609Z,11.40
2024-02-14T22:42:29.681Z,11.40
2024-02-14T22:44:56.598Z,11.40
2024-02-14T22:47:23.674Z,11.40
2024-02-14T22:49:50.765Z,11.40
2024-02-14T22:52:17.636Z,11.40
2024-02-14T22:54:44.494Z,11.40
2024-02-14T22:57:11.487Z,11.50
2024-02-14T22:59:39.209Z,11.40
2024-02-14T23:02:07.377Z,11.40
2024-02-14T23:04:34.735Z,11.50
2024-02-14T23:07:01.915Z,11.50
2024-02-14T23:09:28.820Z,11.50
2024-02-14T23:11:55.733Z,11.40
2024-02-14T23:14:22.785Z,11.50
2024-02-14T23:16:49.756Z,11.50
2024-02-14T23:19:16.868Z,11.50
2024-02-14T23:21:43.872Z,11.50
2024-02-14T23:24:11.009Z,11.50
2024-02-14T23:26:38.084Z,11.40
2024-02-14T23:29:04.957Z,11.40
2024-02-14T23:31:33.507Z,11.40
2024-02-14T23:34:01.612Z,11.50
2024-02-14T23:36:28.874Z,11.60
2024-02-14T23:38:55.755Z,11.50
2024-02-14T23:41:22.743Z,11.50
2024-02-14T23:43:49.652Z,11.50
2024-02-14T23:46:17.905Z,11.60
2024-02-14T23:48:47.302Z,11.60
2024-02-14T23:51:16.973Z,11.60
2024-02-14T23:53:44.021Z,11.60
2024-02-14T23:56:11.018Z,11.50
2024-02-14T23:58:37.902Z,11.50
